sensor_id;sensor_type;location;lat;lon;timestamp;P1;durP1;ratioP1;P2;durP2;ratioP2
10882;SDS011;5494;51.796;10.952;2024-02-15T00:01:11;0.30;;;0.30;;
10882;SDS011;5494;51.796;10.952;2024-02-15T00:03:39;0.30;;;0.30;;
10882;SDS011;5494;51.796;10.952;2024-02-15T00:06:09;0.30;;;0.30;;
10882;SDS011;5494;51.796;10.952;2024-02-15T00:08:38;0.50;;;0.30;;
10882;SDS011;5494;51.796;10.952;2024-02-15T00:11:06;0.30;;;0.30;;
10882;SDS011;5494;51.796;10.952;2024-02-15T00:13:35;0.40;;;0.37;;
10882;SDS011;5494;51.796;10.952;2024-02-15T00:16:03;0.40;;;0.30;;
10882;SDS011;5494;51.796;10.952;2024-02-15T00:18:31;0.70;;;0.50;;
10882;SDS011;5494;51.796;10.952;2024-02-15T00:21:00;0.20;;;0.20;;
10882;SDS011;5494;51.796;10.952;2024-02-15T00:23:30;0.33;;;0.30;;
10882;SDS011;5494;51.796;10.952;2024-02-15T00:25:59;0.20;;;0.20;;
10882;SDS011;5494;51.796;10.952;2024-02-15T00:28:27;0.83;;;0.40;;
10882;SDS011;5494;51.796;10.952;2024-02-15T00:30:55;0.30;;;0.23;;
10882;SDS011;5494;51.796;10.952;2024-02-15T00:33:23;0.23;;;0.20;;
10882;SDS011;5494;51.796;10.952;2024-02-15T00:35:52;0.30;;;0.20;;
10882;SDS011;5494;51.796;10.952;2024-02-15T00:38:20;0.30;;;0.30;;
10882;SDS011;5494;51.796;10.952;2024-02-15T00:40:49;0.33;;;0.30;;
10882;SDS011;5494;51.796;10.952;2024-02-15T00:43:17;0.30;;;0.30;;
10882;SDS011;5494;51.796;10.952;2024-02-15T00:45:45;0.40;;;0.40;;
10882;SDS011;5494;51.796;10.952;2024-02-15T00:48:14;0.40;;;0.40;;
10882;SDS011;5494;51.796;10.952;2024-02-15T00:50:42;0.50;;;0.50;;
10882;SDS011;5494;51.796;10.952;2024-02-15T00:53:10;0.53;;;0.40;;
10882;SDS011;5494;51.796;10.952;2024-02-15T00:55:38;0.50;;;0.50;;
10882;SDS011;5494;51.796;10.952;2024-02-15T00:58:08;0.50;;;0.30;;
10882;SDS011;5494;51.796;10.952;2024-02-15T01:00:36;0.70;;;0.53;;
10882;SDS011;5494;51.796;10.952;2024-02-15T01:03:05;0.50;;;0.40;;
10882;SDS011;5494;51.796;10.952;2024-02-15T01:05:33;0.40;;;0.40;;
10882;SDS011;5494;51.796;10.952;2024-02-15T01:08:01;0.40;;;0.40;;
10882;SDS011;5494;51.796;10.952;2024-02-15T01:10:29;0.40;;;0.40;;
10882;SDS011;5494;51.796;10.952;2024-02-15T01:12:57;0.83;;;0.50;;
10882;SDS011;5494;51.796;10.952;2024-02-15T01:15:26;1.57;;;0.53;;
10882;SDS011;5494;51.796;10.952;2024-02-15T01:17:54;0.70;;;0.70;;
10882;SDS011;5494;51.796;10.952;2024-02-15T01:20:23;0.50;;;0.50;;
10882;SDS011;5494;51.796;10.952;2024-02-15T01:22:51;1.30;;;0.90;;
10882;SDS011;5494;51.796;10.952;2024-02-15T01:25:19;1.13;;;1.03;;
10882;SDS011;5494;51.796;10.952;2024-02-15T01:27:47;1.97;;;0.80;;
10882;SDS011;5494;51.796;10.952;2024-02-15T01:30:15;1.77;;;0.80;;
10882;SDS011;5494;51.796;10.952;2024-02-15T01:32:45;1.20;;;1.10;;
10882;SDS011;5494;51.796;10.952;2024-02-15T01:35:13;1.00;;;0.90;;
10882;SDS011;5494;51.796;10.952;2024-02-15T01:37:41;1.67;;;1.20;;
10882;SDS011;5494;51.796;10.952;2024-02-15T01:40:09;1.30;;;1.20;;
10882;SDS011;5494;51.796;10.952;2024-02-15T01:42:39;1.40;;;1.30;;
10882;SDS011;5494;51.796;10.952;2024-02-15T01:45:08;1.30;;;1.20;;
10882;SDS011;5494;51.796;10.952;2024-02-15T01:47:38;1.47;;;0.97;;
10882;SDS011;5494;51.796;10.952;2024-02-15T01:50:09;1.43;;;0.80;;
10882;SDS011;5494;51.796;10.952;2024-02-15T01:52:40;1.20;;;1.10;;
10882;SDS011;5494;51.796;10.952;2024-02-15T01:55:14;1.20;;;0.50;;
10882;SDS011;5494;51.796;10.952;2024-02-15T01:57:45;0.80;;;0.70;;
10882;SDS011;5494;51.796;10.952;2024-02-15T02:00:13;0.77;;;0.70;;
10882;SDS011;5494;51.796;10.952;2024-02-15T02:02:45;1.90;;;1.03;;
10882;SDS011;5494;51.796;10.952;2024-02-15T02:05:15;0.60;;;0.60;;
10882;SDS011;5494;51.796;10.952;2024-02-15T02:07:43;2.00;;;0.60;;
10882;SDS011;5494;51.796;10.952;2024-02-15T02:10:11;0.60;;;0.60;;
10882;SDS011;5494;51.796;10.952;2024-02-15T02:12:40;0.90;;;0.60;;
10882;SDS011;5494;51.796;10.952;2024-02-15T02:15:09;0.60;;;0.50;;
10882;SDS011;5494;51.796;10.952;2024-02-15T02:17:38;0.50;;;0.43;;
10882;SDS011;5494;51.796;10.952;2024-02-15T02:20:07;1.20;;;0.50;;
10882;SDS011;5494;51.796;10.952;2024-02-15T02:22:41;0.90;;;0.50;;
10882;SDS011;5494;51.796;10.952;2024-02-15T02:25:14;0.53;;;0.50;;
10882;SDS011;5494;51.796;10.952;2024-02-15T02:27:45;0.40;;;0.40;;
10882;SDS011;5494;51.796;10.952;2024-02-15T02:30:16;0.50;;;0.50;;
10882;SDS011;5494;51.796;10.952;2024-02-15T02:32:48;0.73;;;0.67;;
10882;SDS011;5494;51.796;10.952;2024-02-15T02:35:16;0.63;;;0.60;;
10882;SDS011;5494;51.796;10.952;2024-02-15T02:37:46;0.50;;;0.50;;
10882;SDS011;5494;51.796;10.952;2024-02-15T02:40:16;0.73;;;0.73;;
10882;SDS011;5494;51.796;10.952;2024-02-15T02:42:48;0.73;;;0.73;;
10882;SDS011;5494;51.796;10.952;2024-02-15T02:45:17;1.83;;;0.70;;
10882;SDS011;5494;51.796;10.952;2024-02-15T02:47:48;0.70;;;0.70;;
10882;SDS011;5494;51.796;10.952;2024-02-15T02:50:20;0.77;;;0.70;;
10882;SDS011;5494;51.796;10.952;2024-02-15T02:52:50;1.73;;;0.70;;
10882;SDS011;5494;51.796;10.952;2024-02-15T02:55:19;1.33;;;0.50;;
10882;SDS011;5494;51.796;10.952;2024-02-15T02:57:47;0.70;;;0.70;;
10882;SDS011;5494;51.796;10.952;2024-02-15T03:00:16;0.90;;;0.70;;
10882;SDS011;5494;51.796;10.952;2024-02-15T03:02:46;0.63;;;0.57;;
10882;SDS011;5494;51.796;10.952;2024-02-15T03:05:15;0.70;;;0.60;;
10882;SDS011;5494;51.796;10.952;2024-02-15T03:07:43;0.80;;;0.70;;
10882;SDS011;5494;51.796;10.952;2024-02-15T03:10:11;0.63;;;0.63;;
10882;SDS011;5494;51.796;10.952;2024-02-15T03:12:42;1.10;;;0.80;;
10882;SDS011;5494;51.796;10.952;2024-02-15T03:15:14;1.10;;;0.90;;
10882;SDS011;5494;51.796;10.952;2024-02-15T03:17:45;1.27;;;0.90;;
10882;SDS011;5494;51.796;10.952;2024-02-15T03:20:16;1.23;;;1.13;;
10882;SDS011;5494;51.796;10.952;2024-02-15T03:22:52;1.67;;;1.20;;
10882;SDS011;5494;51.796;10.952;2024-02-15T03:25:22;1.20;;;1.10;;
10882;SDS011;5494;51.796;10.952;2024-02-15T03:27:53;1.73;;;1.37;;
10882;SDS011;5494;51.796;10.952;2024-02-15T03:30:23;1.90;;;1.70;;
10882;SDS011;5494;51.796;10.952;2024-02-15T03:32:59;1.60;;;1.50;;
10882;SDS011;5494;51.796;10.952;2024-02-15T03:35:29;1.90;;;1.70;;
10882;SDS011;5494;51.796;10.952;2024-02-15T03:37:58;1.43;;;1.33;;
10882;SDS011;5494;51.796;10.952;2024-02-15T03:40:27;2.17;;;1.93;;
10882;SDS011;5494;51.796;10.952;2024-02-15T03:42:58;1.80;;;1.70;;
10882;SDS011;5494;51.796;10.952;2024-02-15T03:45:27;1.93;;;1.67;;
10882;SDS011;5494;51.796;10.952;2024-02-15T03:47:55;1.80;;;1.70;;
10882;SDS011;5494;51.796;10.952;2024-02-15T03:50:23;1.63;;;1.33;;
10882;SDS011;5494;51.796;10.952;2024-02-15T03:52:51;1.53;;;1.40;;
10882;SDS011;5494;51.796;10.952;2024-02-15T03:55:19;1.30;;;1.20;;
10882;SDS011;5494;51.796;10.952;2024-02-15T03:57:49;1.30;;;1.20;;
10882;SDS011;5494;51.796;10.952;2024-02-15T04:00:18;1.10;;;0.87;;
10882;SDS011;5494;51.796;10.952;2024-02-15T04:02:48;1.83;;;1.17;;
10882;SDS011;5494;51.796;10.952;2024-02-15T04:05:17;1.80;;;1.03;;
10882;SDS011;5494;51.796;10.952;2024-02-15T04:07:48;1.67;;;1.20;;
10882;SDS011;5494;51.796;10.952;2024-02-15T04:10:16;1.30;;;1.20;;
10882;SDS011;5494;51.796;10.952;2024-02-15T04:12:45;1.30;;;1.20;;
10882;SDS011;5494;51.796;10.952;2024-02-15T04:15:13;2.07;;;1.50;;
10882;SDS011;5494;51.796;10.952;2024-02-15T04:17:45;2.13;;;1.50;;
10882;SDS011;5494;51.796;10.952;2024-02-15T04:20:14;2.17;;;1.97;;
10882;SDS011;5494;51.796;10.952;2024-02-15T04:22:46;2.37;;;2.17;;
10882;SDS011;5494;51.796;10.952;2024-02-15T04:25:16;2.10;;;1.90;;
10882;SDS011;5494;51.796;10.952;2024-02-15T04:27:46;3.77;;;2.13;;
10882;SDS011;5494;51.796;10.952;2024-02-15T04:30:15;2.20;;;1.80;;
10882;SDS011;5494;51.796;10.952;2024-02-15T04:32:45;1.53;;;1.43;;
10882;SDS011;5494;51.796;10.952;2024-02-15T04:35:14;2.60;;;1.47;;
10882;SDS011;5494;51.796;10.952;2024-02-15T04:37:42;1.23;;;1.13;;
10882;SDS011;5494;51.796;10.952;2024-02-15T04:40:13;2.47;;;1.00;;
10882;SDS011;5494;51.796;10.952;2024-02-15T04:42:41;1.20;;;1.10;;
10882;SDS011;5494;51.796;10.952;2024-02-15T04:45:11;1.37;;;0.90;;
10882;SDS011;5494;51.796;10.952;2024-02-15T04:47:42;1.20;;;0.80;;
10882;SDS011;5494;51.796;10.952;2024-02-15T04:50:15;0.80;;;0.80;;
10882;SDS011;5494;51.796;10.952;2024-02-15T04:52:45;0.67;;;0.67;;
10882;SDS011;5494;51.796;10.952;2024-02-15T04:55:15;0.60;;;0.60;;
10882;SDS011;5494;51.796;10.952;2024-02-15T04:57:44;0.50;;;0.50;;
10882;SDS011;5494;51.796;10.952;2024-02-15T05:00:13;0.73;;;0.53;;
10882;SDS011;5494;51.796;10.952;2024-02-15T05:02:47;0.90;;;0.40;;
10882;SDS011;5494;51.796;10.952;2024-02-15T05:05:17;0.40;;;0.40;;
10882;SDS011;5494;51.796;10.952;2024-02-15T05:07:46;0.67;;;0.30;;
10882;SDS011;5494;51.796;10.952;2024-02-15T05:10:15;0.40;;;0.40;;
10882;SDS011;5494;51.796;10.952;2024-02-15T05:12:43;0.50;;;0.40;;
10882;SDS011;5494;51.796;10.952;2024-02-15T05:15:14;0.30;;;0.30;;
10882;SDS011;5494;51.796;10.952;2024-02-15T05:17:45;0.93;;;0.40;;
10882;SDS011;5494;51.796;10.952;2024-02-15T05:20:14;0.30;;;0.30;;
10882;SDS011;5494;51.796;10.952;2024-02-15T05:22:44;0.67;;;0.40;;
10882;SDS011;5494;51.796;10.952;2024-02-15T05:25:16;0.30;;;0.30;;
10882;SDS011;5494;51.796;10.952;2024-02-15T05:27:50;1.00;;;0.50;;
10882;SDS011;5494;51.796;10.952;2024-02-15T05:30:20;2.00;;;0.57;;
10882;SDS011;5494;51.796;10.952;2024-02-15T05:32:49;0.67;;;0.40;;
10882;SDS011;5494;51.796;10.952;2024-02-15T05:35:20;0.37;;;0.37;;
10882;SDS011;5494;51.796;10.952;2024-02-15T05:37:49;0.50;;;0.40;;
10882;SDS011;5494;51.796;10.952;2024-02-15T05:40:19;0.53;;;0.40;;
10882;SDS011;5494;51.796;10.952;2024-02-15T05:42:48;0.30;;;0.30;;
10882;SDS011;5494;51.796;10.952;2024-02-15T05:45:29;0.40;;;0.40;;
10882;SDS011;5494;51.796;10.952;2024-02-15T05:48:03;0.53;;;0.40;;
10882;SDS011;5494;51.796;10.952;2024-02-15T05:50:35;0.80;;;0.60;;
10882;SDS011;5494;51.796;10.952;2024-02-15T05:53:05;0.60;;;0.50;;
10882;SDS011;5494;51.796;10.952;2024-02-15T05:55:34;1.07;;;0.70;;
10882;SDS011;5494;51.796;10.952;2024-02-15T05:58:04;0.57;;;0.40;;
10882;SDS011;5494;51.796;10.952;2024-02-15T06:00:33;1.43;;;0.60;;
10882;SDS011;5494;51.796;10.952;2024-02-15T06:03:01;0.50;;;0.50;;
10882;SDS011;5494;51.796;10.952;2024-02-15T06:05:30;0.60;;;0.60;;
10882;SDS011;5494;51.796;10.952;2024-02-15T06:07:58;0.73;;;0.70;;
10882;SDS011;5494;51.796;10.952;2024-02-15T06:10:28;1.17;;;0.77;;
10882;SDS011;5494;51.796;10.952;2024-02-15T06:12:56;1.30;;;0.87;;
10882;SDS011;5494;51.796;10.952;2024-02-15T06:15:25;1.40;;;0.80;;
10882;SDS011;5494;51.796;10.952;2024-02-15T06:17:53;1.97;;;0.90;;
10882;SDS011;5494;51.796;10.952;2024-02-15T06:20:21;1.10;;;1.00;;
10882;SDS011;5494;51.796;10.952;2024-02-15T06:22:50;1.40;;;0.93;;
10882;SDS011;5494;51.796;10.952;2024-02-15T06:25:19;1.50;;;1.23;;
10882;SDS011;5494;51.796;10.952;2024-02-15T06:27:50;1.43;;;1.33;;
10882;SDS011;5494;51.796;10.952;2024-02-15T06:30:25;1.10;;;1.00;;
10882;SDS011;5494;51.796;10.952;2024-02-15T06:33:10;3.10;;;1.40;;
10882;SDS011;5494;51.796;10.952;2024-02-15T06:36:05;1.30;;;1.10;;
10882;SDS011;5494;51.796;10.952;2024-02-15T06:38:52;1.33;;;1.23;;
10882;SDS011;5494;51.796;10.952;2024-02-15T06:41:37;1.23;;;1.10;;
10882;SDS011;5494;51.796;10.952;2024-02-15T06:44:08;1.30;;;1.10;;
10882;SDS011;5494;51.796;10.952;2024-02-15T06:46:36;1.40;;;0.87;;
10882;SDS011;5494;51.796;10.952;2024-02-15T06:49:06;2.10;;;1.17;;
10882;SDS011;5494;51.796;10.952;2024-02-15T06:51:34;1.27;;;1.07;;
10882;SDS011;5494;51.796;10.952;2024-02-15T06:54:02;1.20;;;1.10;;
10882;SDS011;5494;51.796;10.952;2024-02-15T06:56:30;1.73;;;0.70;;
10882;SDS011;5494;51.796;10.952;2024-02-15T06:59:03;2.73;;;0.90;;
10882;SDS011;5494;51.796;10.952;2024-02-15T07:01:32;1.33;;;1.00;;
10882;SDS011;5494;51.796;10.952;2024-02-15T07:04:00;0.87;;;0.73;;
10882;SDS011;5494;51.796;10.952;2024-02-15T07:06:29;0.80;;;0.73;;
10882;SDS011;5494;51.796;10.952;2024-02-15T07:08:58;1.30;;;1.20;;
10882;SDS011;5494;51.796;10.952;2024-02-15T07:11:26;1.23;;;1.10;;
10882;SDS011;5494;51.796;10.952;2024-02-15T07:13:54;4.03;;;1.67;;
10882;SDS011;5494;51.796;10.952;2024-02-15T07:16:23;2.03;;;1.50;;
10882;SDS011;5494;51.796;10.952;2024-02-15T07:18:52;2.03;;;1.57;;
10882;SDS011;5494;51.796;10.952;2024-02-15T07:21:21;1.63;;;1.30;;
10882;SDS011;5494;51.796;10.952;2024-02-15T07:23:52;1.57;;;1.47;;
10882;SDS011;5494;51.796;10.952;2024-02-15T07:26:21;3.20;;;1.50;;
10882;SDS011;5494;51.796;10.952;2024-02-15T07:28:51;2.10;;;1.17;;
10882;SDS011;5494;51.796;10.952;2024-02-15T07:31:20;1.10;;;1.00;;
10882;SDS011;5494;51.796;10.952;2024-02-15T07:33:49;1.40;;;1.30;;
10882;SDS011;5494;51.796;10.952;2024-02-15T07:36:21;2.23;;;1.27;;
10882;SDS011;5494;51.796;10.952;2024-02-15T07:38:51;2.47;;;1.20;;
10882;SDS011;5494;51.796;10.952;2024-02-15T07:41:20;2.27;;;1.30;;
10882;SDS011;5494;51.796;10.952;2024-02-15T07:43:49;1.50;;;1.40;;
10882;SDS011;5494;51.796;10.952;2024-02-15T07:46:19;3.03;;;1.30;;
10882;SDS011;5494;51.796;10.952;2024-02-15T07:48:48;3.30;;;2.27;;
10882;SDS011;5494;51.796;10.952;2024-02-15T07:51:17;3.60;;;1.77;;
10882;SDS011;5494;51.796;10.952;2024-02-15T07:53:48;1.77;;;1.37;;
10882;SDS011;5494;51.796;10.952;2024-02-15T07:56:17;2.07;;;1.67;;
10882;SDS011;5494;51.796;10.952;2024-02-15T07:58:48;4.17;;;2.00;;
10882;SDS011;5494;51.796;10.952;2024-02-15T08:01:20;3.37;;;2.20;;
10882;SDS011;5494;51.796;10.952;2024-02-15T08:03:50;2.47;;;1.57;;
10882;SDS011;5494;51.796;10.952;2024-02-15T08:06:21;2.87;;;1.97;;
10882;SDS011;5494;51.796;10.952;2024-02-15T08:08:53;4.60;;;1.30;;
10882;SDS011;5494;51.796;10.952;2024-02-15T08:11:21;2.03;;;1.53;;
10882;SDS011;5494;51.796;10.952;2024-02-15T08:13:50;1.60;;;1.50;;
10882;SDS011;5494;51.796;10.952;2024-02-15T08:16:21;2.70;;;1.40;;
10882;SDS011;5494;51.796;10.952;2024-02-15T08:18:50;2.50;;;1.77;;
10882;SDS011;5494;51.796;10.952;2024-02-15T08:21:25;3.90;;;1.47;;
10882;SDS011;5494;51.796;10.952;2024-02-15T08:23:57;2.33;;;1.63;;
10882;SDS011;5494;51.796;10.952;2024-02-15T08:26:25;2.10;;;1.90;;
10882;SDS011;5494;51.796;10.952;2024-02-15T08:28:56;2.53;;;1.77;;
10882;SDS011;5494;51.796;10.952;2024-02-15T08:31:24;4.53;;;1.73;;
10882;SDS011;5494;51.796;10.952;2024-02-15T08:33:52;2.33;;;2.00;;
10882;SDS011;5494;51.796;10.952;2024-02-15T08:36:20;2.63;;;1.93;;
10882;SDS011;5494;51.796;10.952;2024-02-15T08:38:48;2.70;;;2.07;;
10882;SDS011;5494;51.796;10.952;2024-02-15T08:41:18;2.50;;;1.70;;
10882;SDS011;5494;51.796;10.952;2024-02-15T08:43:49;2.83;;;1.80;;
10882;SDS011;5494;51.796;10.952;2024-02-15T08:46:17;2.43;;;1.70;;
10882;SDS011;5494;51.796;10.952;2024-02-15T08:48:45;4.43;;;1.97;;
10882;SDS011;5494;51.796;10.952;2024-02-15T08:51:14;2.43;;;1.50;;
10882;SDS011;5494;51.796;10.952;2024-02-15T08:53:43;3.10;;;2.07;;
10882;SDS011;5494;51.796;10.952;2024-02-15T08:56:11;1.80;;;1.60;;
10882;SDS011;5494;51.796;10.952;2024-02-15T08:58:41;6.13;;;2.63;;
10882;SDS011;5494;51.796;10.952;2024-02-15T09:01:09;2.07;;;1.87;;
10882;SDS011;5494;51.796;10.952;2024-02-15T09:03:40;4.33;;;1.90;;
10882;SDS011;5494;51.796;10.952;2024-02-15T09:06:12;2.80;;;2.10;;
10882;SDS011;5494;51.796;10.952;2024-02-15T09:08:40;1.67;;;1.50;;
10882;SDS011;5494;51.796;10.952;2024-02-15T09:11:08;3.07;;;2.00;;
10882;SDS011;5494;51.796;10.952;2024-02-15T09:13:39;2.77;;;1.97;;
10882;SDS011;5494;51.796;10.952;2024-02-15T09:16:08;2.30;;;1.90;;
10882;SDS011;5494;51.796;10.952;2024-02-15T09:18:38;3.80;;;1.90;;
10882;SDS011;5494;51.796;10.952;2024-02-15T09:21:11;1.70;;;1.47;;
10882;SDS011;5494;51.796;10.952;2024-02-15T09:23:40;3.17;;;2.13;;
10882;SDS011;5494;51.796;10.952;2024-02-15T09:26:08;3.00;;;2.30;;
10882;SDS011;5494;51.796;10.952;2024-02-15T09:28:36;2.67;;;1.80;;
10882;SDS011;5494;51.796;10.952;2024-02-15T09:31:08;1.63;;;1.50;;
10882;SDS011;5494;51.796;10.952;2024-02-15T09:33:38;2.17;;;1.90;;
10882;SDS011;5494;51.796;10.952;2024-02-15T09:36:06;2.53;;;1.40;;
10882;SDS011;5494;51.796;10.952;2024-02-15T09:38:35;2.00;;;1.37;;
10882;SDS011;5494;51.796;10.952;2024-02-15T09:41:03;2.13;;;1.63;;
10882;SDS011;5494;51.796;10.952;2024-02-15T09:43:34;3.53;;;2.00;;
10882;SDS011;5494;51.796;10.952;2024-02-15T09:46:02;2.70;;;1.80;;
10882;SDS011;5494;51.796;10.952;2024-02-15T09:48:32;3.67;;;1.90;;
10882;SDS011;5494;51.796;10.952;2024-02-15T09:51:04;3.87;;;1.53;;
10882;SDS011;5494;51.796;10.952;2024-02-15T09:53:34;1.77;;;1.40;;
10882;SDS011;5494;51.796;10.952;2024-02-15T09:56:03;2.60;;;1.33;;
10882;SDS011;5494;51.796;10.952;2024-02-15T09:58:33;1.97;;;1.20;;
10882;SDS011;5494;51.796;10.952;2024-02-15T10:01:01;1.60;;;1.20;;
10882;SDS011;5494;51.796;10.952;2024-02-15T10:03:37;4.10;;;1.60;;
10882;SDS011;5494;51.796;10.952;2024-02-15T10:06:07;1.77;;;1.30;;
10882;SDS011;5494;51.796;10.952;2024-02-15T10:08:36;1.27;;;1.17;;
10882;SDS011;5494;51.796;10.952;2024-02-15T10:11:06;1.87;;;1.27;;
10882;SDS011;5494;51.796;10.952;2024-02-15T10:13:36;1.40;;;1.03;;
10882;SDS011;5494;51.796;10.952;2024-02-15T10:16:13;1.93;;;1.03;;
10882;SDS011;5494;51.796;10.952;2024-02-15T10:18:44;1.10;;;1.00;;
10882;SDS011;5494;51.796;10.952;2024-02-15T10:24:04;1.33;;;1.20;;
10882;SDS011;5494;51.796;10.952;2024-02-15T10:26:35;6.03;;;1.10;;
10882;SDS011;5494;51.796;10.952;2024-02-15T10:29:07;1.47;;;1.13;;
10882;SDS011;5494;51.796;10.952;2024-02-15T10:31:38;1.90;;;1.00;;
10882;SDS011;5494;51.796;10.952;2024-02-15T10:34:09;0.90;;;0.90;;
10882;SDS011;5494;51.796;10.952;2024-02-15T10:36:42;1.57;;;1.20;;
10882;SDS011;5494;51.796;10.952;2024-02-15T10:39:10;1.73;;;1.10;;
10882;SDS011;5494;51.796;10.952;2024-02-15T10:41:44;2.40;;;1.50;;
10882;SDS011;5494;51.796;10.952;2024-02-15T10:44:17;2.63;;;1.50;;
10882;SDS011;5494;51.796;10.952;2024-02-15T10:46:47;2.03;;;1.60;;
10882;SDS011;5494;51.796;10.952;2024-02-15T10:49:19;2.70;;;1.70;;
10882;SDS011;5494;51.796;10.952;2024-02-15T10:51:51;2.77;;;1.50;;
10882;SDS011;5494;51.796;10.952;2024-02-15T10:54:31;2.47;;;1.30;;
10882;SDS011;5494;51.796;10.952;2024-02-15T10:57:09;3.57;;;1.90;;
10882;SDS011;5494;51.796;10.952;2024-02-15T10:59:39;2.83;;;1.77;;
10882;SDS011;5494;51.796;10.952;2024-02-15T11:02:23;4.00;;;1.60;;
10882;SDS011;5494;51.796;10.952;2024-02-15T11:05:00;4.80;;;2.00;;
10882;SDS011;5494;51.796;10.952;2024-02-15T11:07:36;4.97;;;2.00;;
10882;SDS011;5494;51.796;10.952;2024-02-15T11:10:06;3.77;;;2.10;;
10882;SDS011;5494;51.796;10.952;2024-02-15T11:12:37;2.80;;;1.90;;
10882;SDS011;5494;51.796;10.952;2024-02-15T11:15:08;3.50;;;1.93;;
10882;SDS011;5494;51.796;10.952;2024-02-15T11:17:44;4.10;;;2.40;;
10882;SDS011;5494;51.796;10.952;2024-02-15T11:23:23;5.80;;;2.20;;
10882;SDS011;5494;51.796;10.952;2024-02-15T11:26:03;3.00;;;2.10;;
10882;SDS011;5494;51.796;10.952;2024-02-15T11:28:39;2.63;;;2.10;;
10882;SDS011;5494;51.796;10.952;2024-02-15T11:40:04;4.17;;;2.47;;
10882;SDS011;5494;51.796;10.952;2024-02-15T11:42:36;4.10;;;2.60;;
10882;SDS011;5494;51.796;10.952;2024-02-15T11:45:06;3.93;;;2.73;;
10882;SDS011;5494;51.796;10.952;2024-02-15T11:47:36;3.87;;;2.30;;
10882;SDS011;5494;51.796;10.952;2024-02-15T11:50:08;3.10;;;2.63;;
10882;SDS011;5494;51.796;10.952;2024-02-15T11:52:41;3.07;;;2.13;;
10882;SDS011;5494;51.796;10.952;2024-02-15T11:55:11;3.63;;;2.30;;
10882;SDS011;5494;51.796;10.952;2024-02-15T11:57:40;4.33;;;2.50;;
10882;SDS011;5494;51.796;10.952;2024-02-15T12:00:21;3.40;;;2.00;;
10882;SDS011;5494;51.796;10.952;2024-02-15T12:03:08;4.83;;;2.20;;
10882;SDS011;5494;51.796;10.952;2024-02-15T12:05:54;3.70;;;2.33;;
10882;SDS011;5494;51.796;10.952;2024-02-15T12:08:43;4.43;;;2.23;;
10882;SDS011;5494;51.796;10.952;2024-02-15T12:11:31;5.43;;;2.03;;
10882;SDS011;5494;51.796;10.952;2024-02-15T12:14:17;3.27;;;1.50;;
10882;SDS011;5494;51.796;10.952;2024-02-15T12:17:04;5.13;;;1.97;;
10882;SDS011;5494;51.796;10.952;2024-02-15T12:19:52;2.73;;;2.07;;
10882;SDS011;5494;51.796;10.952;2024-02-15T12:22:22;3.40;;;1.67;;
10882;SDS011;5494;51.796;10.952;2024-02-15T12:24:54;7.23;;;2.20;;
10882;SDS011;5494;51.796;10.952;2024-02-15T12:27:27;6.37;;;2.30;;
10882;SDS011;5494;51.796;10.952;2024-02-15T12:29:57;4.53;;;1.90;;
10882;SDS011;5494;51.796;10.952;2024-02-15T12:32:26;3.63;;;1.77;;
10882;SDS011;5494;51.796;10.952;2024-02-15T12:35:09;3.13;;;1.90;;
10882;SDS011;5494;51.796;10.952;2024-02-15T12:37:46;5.13;;;2.03;;
10882;SDS011;5494;51.796;10.952;2024-02-15T12:40:16;3.33;;;2.10;;
10882;SDS011;5494;51.796;10.952;2024-02-15T12:42:46;4.67;;;1.73;;
10882;SDS011;5494;51.796;10.952;2024-02-15T12:45:16;2.10;;;1.47;;
10882;SDS011;5494;51.796;10.952;2024-02-15T12:47:47;3.27;;;1.77;;
10882;SDS011;5494;51.796;10.952;2024-02-15T12:50:20;3.37;;;1.70;;
10882;SDS011;5494;51.796;10.952;2024-02-15T12:52:51;3.57;;;1.13;;
10882;SDS011;5494;51.796;10.952;2024-02-15T12:55:20;3.17;;;1.60;;
10882;SDS011;5494;51.796;10.952;2024-02-15T12:57:53;3.87;;;1.50;;
10882;SDS011;5494;51.796;10.952;2024-02-15T13:00:24;4.07;;;1.50;;
10882;SDS011;5494;51.796;10.952;2024-02-15T13:02:55;2.60;;;1.30;;
10882;SDS011;5494;51.796;10.952;2024-02-15T13:05:25;6.77;;;2.27;;
10882;SDS011;5494;51.796;10.952;2024-02-15T13:07:55;3.63;;;1.67;;
10882;SDS011;5494;51.796;10.952;2024-02-15T13:10:24;2.77;;;1.40;;
10882;SDS011;5494;51.796;10.952;2024-02-15T13:12:57;3.47;;;1.63;;
10882;SDS011;5494;51.796;10.952;2024-02-15T13:15:25;2.50;;;1.43;;
10882;SDS011;5494;51.796;10.952;2024-02-15T13:17:59;4.70;;;1.80;;
10882;SDS011;5494;51.796;10.952;2024-02-15T13:20:31;3.20;;;1.23;;
10882;SDS011;5494;51.796;10.952;2024-02-15T13:23:02;1.80;;;1.33;;
10882;SDS011;5494;51.796;10.952;2024-02-15T13:25:36;3.20;;;1.50;;
10882;SDS011;5494;51.796;10.952;2024-02-15T13:28:08;2.53;;;1.20;;
10882;SDS011;5494;51.796;10.952;2024-02-15T13:30:39;2.53;;;1.47;;
10882;SDS011;5494;51.796;10.952;2024-02-15T13:33:08;2.63;;;1.33;;
10882;SDS011;5494;51.796;10.952;2024-02-15T13:35:37;4.60;;;1.87;;
10882;SDS011;5494;51.796;10.952;2024-02-15T13:38:05;4.33;;;1.30;;
10882;SDS011;5494;51.796;10.952;2024-02-15T13:40:35;1.87;;;1.33;;
10882;SDS011;5494;51.796;10.952;2024-02-15T13:43:03;3.17;;;1.30;;
10882;SDS011;5494;51.796;10.952;2024-02-15T13:45:34;2.63;;;1.20;;
10882;SDS011;5494;51.796;10.952;2024-02-15T13:48:07;3.20;;;1.30;;
10882;SDS011;5494;51.796;10.952;2024-02-15T13:50:37;2.00;;;1.30;;
10882;SDS011;5494;51.796;10.952;2024-02-15T13:53:06;3.23;;;1.30;;
10882;SDS011;5494;51.796;10.952;2024-02-15T13:55:36;3.30;;;1.27;;
10882;SDS011;5494;51.796;10.952;2024-02-15T13:58:04;3.00;;;1.47;;
10882;SDS011;5494;51.796;10.952;2024-02-15T14:00:36;4.20;;;1.57;;
10882;SDS011;5494;51.796;10.952;2024-02-15T14:03:04;1.93;;;1.60;;
10882;SDS011;5494;51.796;10.952;2024-02-15T14:05:33;2.97;;;1.80;;
10882;SDS011;5494;51.796;10.952;2024-02-15T14:08:02;4.73;;;2.53;;
10882;SDS011;5494;51.796;10.952;2024-02-15T14:10:32;3.03;;;2.70;;
10882;SDS011;5494;51.796;10.952;2024-02-15T14:13:04;2.43;;;1.50;;
10882;SDS011;5494;51.796;10.952;2024-02-15T14:15:35;5.90;;;2.00;;
10882;SDS011;5494;51.796;10.952;2024-02-15T14:18:05;3.30;;;1.73;;
10882;SDS011;5494;51.796;10.952;2024-02-15T14:20:37;3.20;;;1.70;;
10882;SDS011;5494;51.796;10.952;2024-02-15T14:23:05;3.23;;;1.90;;
10882;SDS011;5494;51.796;10.952;2024-02-15T14:25:40;2.00;;;1.53;;
10882;SDS011;5494;51.796;10.952;2024-02-15T14:28:08;2.30;;;1.60;;
10882;SDS011;5494;51.796;10.952;2024-02-15T14:30:38;3.73;;;1.87;;
10882;SDS011;5494;51.796;10.952;2024-02-15T14:33:25;3.33;;;1.67;;
10882;SDS011;5494;51.796;10.952;2024-02-15T14:35:56;2.67;;;2.00;;
10882;SDS011;5494;51.796;10.952;2024-02-15T14:38:26;4.70;;;1.97;;
10882;SDS011;5494;51.796;10.952;2024-02-15T14:40:54;2.63;;;1.80;;
10882;SDS011;5494;51.796;10.952;2024-02-15T14:43:24;2.93;;;2.00;;
10882;SDS011;5494;51.796;10.952;2024-02-15T14:45:55;4.67;;;2.07;;
10882;SDS011;5494;51.796;10.952;2024-02-15T14:48:24;3.27;;;2.30;;
10882;SDS011;5494;51.796;10.952;2024-02-15T14:50:54;3.43;;;1.90;;
10882;SDS011;5494;51.796;10.952;2024-02-15T14:53:23;2.60;;;1.87;;
10882;SDS011;5494;51.796;10.952;2024-02-15T14:55:52;5.00;;;2.60;;
10882;SDS011;5494;51.796;10.952;2024-02-15T14:58:20;3.97;;;2.07;;
10882;SDS011;5494;51.796;10.952;2024-02-15T15:00:49;5.20;;;3.00;;
10882;SDS011;5494;51.796;10.952;2024-02-15T15:03:29;3.57;;;2.20;;
10882;SDS011;5494;51.796;10.952;2024-02-15T15:05:59;3.00;;;2.03;;
10882;SDS011;5494;51.796;10.952;2024-02-15T15:08:45;4.03;;;2.30;;
10882;SDS011;5494;51.796;10.952;2024-02-15T15:11:30;3.30;;;2.47;;
10882;SDS011;5494;51.796;10.952;2024-02-15T15:14:16;3.70;;;2.70;;
10882;SDS011;5494;51.796;10.952;2024-02-15T15:16:45;4.20;;;3.27;;
10882;SDS011;5494;51.796;10.952;2024-02-15T15:19:16;8.90;;;5.00;;
10882;SDS011;5494;51.796;10.952;2024-02-15T15:21:44;4.30;;;2.83;;
10882;SDS011;5494;51.796;10.952;2024-02-15T15:24:13;4.57;;;2.87;;